DLH3MC EDDB-EDDM
Flight info
| Callsign | DLH3MC |
|---|---|
| Flight time | N/A |
| Altitude | 28000 |
| Route | LUROS3B LUROS Y211 BEBKU Z36 MAREM DCT VESUB T106 TUSTO T108 LANDU LANDU2B |
| Aircraft | A320/M-SDE3FGHIRWY/LB1 |
Departure
| Time | 2026-05-07 11:46 |
|---|---|
| Airport | Berlin Brandenburg Airport (EDDB) |
Arrival
| Time | N/A |
|---|---|
| Airport | Munich Airport (EDDM) |
| Time | Latitude | Longitude | Altitude | Speed | Heading |
|---|---|---|---|---|---|
| 2026-05-07 11:16 | 52.36577 | 13.50469 | 155 ft | 0 kts | 69° |
| 2026-05-07 11:34 | 52.36571 | 13.50444 | 154 ft | 4 kts | 68° |
| 2026-05-07 11:34 | 52.36561 | 13.50403 | 154 ft | 4 kts | 65° |
| 2026-05-07 11:34 | 52.36549 | 13.50364 | 153 ft | 4 kts | 62° |
| 2026-05-07 11:34 | 52.36536 | 13.50326 | 152 ft | 4 kts | 56° |
| 2026-05-07 11:35 | 52.36519 | 13.50292 | 151 ft | 4 kts | 31° |
| 2026-05-07 11:35 | 52.36503 | 13.50284 | 151 ft | 0 kts | 339° |
| 2026-05-07 11:39 | 52.36523 | 13.50272 | 151 ft | 10 kts | 339° |
| 2026-05-07 11:40 | 52.36631 | 13.50208 | 151 ft | 21 kts | 341° |
| 2026-05-07 11:40 | 52.36728 | 13.50087 | 150 ft | 10 kts | 308° |
| 2026-05-07 11:40 | 52.36787 | 13.50028 | 148 ft | 10 kts | 341° |
| 2026-05-07 11:40 | 52.36859 | 13.49957 | 147 ft | 16 kts | 303° |
| 2026-05-07 11:41 | 52.36826 | 13.49745 | 148 ft | 25 kts | 249° |
| 2026-05-07 11:41 | 52.36762 | 13.49455 | 148 ft | 28 kts | 249° |
| 2026-05-07 11:41 | 52.36688 | 13.49151 | 148 ft | 30 kts | 249° |
| 2026-05-07 11:41 | 52.36612 | 13.48832 | 148 ft | 26 kts | 248° |
| 2026-05-07 11:42 | 52.36552 | 13.48577 | 148 ft | 22 kts | 248° |
| 2026-05-07 11:42 | 52.36527 | 13.48392 | 148 ft | 10 kts | 293° |
| 2026-05-07 11:42 | 52.36551 | 13.48353 | 149 ft | 0 kts | 331° |
| 2026-05-07 11:43 | 52.36610 | 13.48312 | 149 ft | 13 kts | 339° |
| 2026-05-07 11:43 | 52.36689 | 13.48268 | 153 ft | 8 kts | 342° |
| 2026-05-07 11:43 | 52.36719 | 13.48293 | 154 ft | 4 kts | 53° |
| 2026-05-07 11:44 | 52.36724 | 13.48311 | 154 ft | 0 kts | 67° |
| 2026-05-07 11:45 | 52.36728 | 13.48327 | 155 ft | 14 kts | 67° |
| 2026-05-07 11:45 | 52.36864 | 13.48896 | 156 ft | 89 kts | 68° |
| 2026-05-07 11:45 | 52.37159 | 13.50142 | 159 ft | 143 kts | 69° |
| 2026-05-07 11:46 | 52.37553 | 13.51785 | 542 ft | 158 kts | 68° |
| 2026-05-07 11:46 | 52.37944 | 13.53463 | 1377 ft | 158 kts | 68° |
| 2026-05-07 11:46 | 52.38329 | 13.55183 | 2000 ft | 167 kts | 68° |
| 2026-05-07 11:46 | 52.38759 | 13.57044 | 2462 ft | 182 kts | 67° |
| 2026-05-07 11:47 | 52.39249 | 13.59056 | 2854 ft | 202 kts | 66° |
| 2026-05-07 11:47 | 52.39815 | 13.61377 | 3093 ft | 237 kts | 68° |
| 2026-05-07 11:47 | 52.40431 | 13.64031 | 3711 ft | 253 kts | 68° |
| 2026-05-07 11:47 | 52.41054 | 13.66739 | 4731 ft | 257 kts | 69° |
| 2026-05-07 11:48 | 52.41695 | 13.69511 | 5595 ft | 264 kts | 68° |
| 2026-05-07 11:48 | 52.42364 | 13.72341 | 6507 ft | 269 kts | 68° |
| 2026-05-07 11:48 | 52.43050 | 13.75229 | 7362 ft | 274 kts | 68° |
| 2026-05-07 11:48 | 52.43866 | 13.78073 | 8203 ft | 279 kts | 57° |
| 2026-05-07 11:49 | 52.45104 | 13.80571 | 9058 ft | 285 kts | 43° |
| 2026-05-07 11:49 | 52.46600 | 13.82745 | 9907 ft | 290 kts | 40° |
| 2026-05-07 11:49 | 52.48141 | 13.84983 | 10433 ft | 307 kts | 41° |
| 2026-05-07 11:49 | 52.49795 | 13.87402 | 10716 ft | 330 kts | 41° |
| 2026-05-07 11:50 | 52.51573 | 13.90018 | 10964 ft | 354 kts | 41° |
| 2026-05-07 11:50 | 52.53436 | 13.92760 | 11462 ft | 366 kts | 41° |
| 2026-05-07 11:50 | 52.55265 | 13.95702 | 12134 ft | 372 kts | 51° |
| 2026-05-07 11:50 | 52.56559 | 13.99401 | 12831 ft | 377 kts | 70° |
| 2026-05-07 11:51 | 52.57115 | 14.03567 | 13521 ft | 381 kts | 87° |
| 2026-05-07 11:51 | 52.56876 | 14.07961 | 14180 ft | 384 kts | 106° |
| 2026-05-07 11:51 | 52.55856 | 14.11938 | 14811 ft | 384 kts | 123° |
| 2026-05-07 11:51 | 52.54269 | 14.15462 | 15466 ft | 385 kts | 133° |
| 2026-05-07 11:52 | 52.52297 | 14.18434 | 16136 ft | 385 kts | 146° |
| 2026-05-07 11:52 | 52.49975 | 14.20633 | 16766 ft | 386 kts | 158° |
| 2026-05-07 11:52 | 52.47415 | 14.21970 | 17382 ft | 387 kts | 170° |
| 2026-05-07 11:52 | 52.44740 | 14.22574 | 17996 ft | 389 kts | 174° |
| 2026-05-07 11:53 | 52.42040 | 14.23107 | 18575 ft | 392 kts | 174° |
| 2026-05-07 11:53 | 52.39323 | 14.23654 | 19100 ft | 395 kts | 174° |
| 2026-05-07 11:53 | 52.36585 | 14.24212 | 19618 ft | 398 kts | 174° |
| 2026-05-07 11:53 | 52.33828 | 14.24781 | 20133 ft | 401 kts | 174° |
| 2026-05-07 11:54 | 52.31049 | 14.25356 | 20640 ft | 404 kts | 174° |
| 2026-05-07 11:54 | 52.28255 | 14.25931 | 21137 ft | 406 kts | 174° |
| 2026-05-07 11:54 | 52.25441 | 14.26505 | 21636 ft | 409 kts | 174° |
| 2026-05-07 11:54 | 52.22607 | 14.27083 | 22114 ft | 412 kts | 174° |
| 2026-05-07 11:55 | 52.19752 | 14.27666 | 22593 ft | 415 kts | 173° |
| 2026-05-07 11:55 | 52.16875 | 14.28253 | 23051 ft | 417 kts | 174° |
| 2026-05-07 11:55 | 52.13988 | 14.28840 | 23505 ft | 420 kts | 173° |
| 2026-05-07 11:55 | 52.11076 | 14.29432 | 23891 ft | 423 kts | 174° |
| 2026-05-07 11:56 | 52.08141 | 14.29699 | 24271 ft | 424 kts | 182° |
| 2026-05-07 11:56 | 52.05244 | 14.29175 | 24654 ft | 425 kts | 192° |
| 2026-05-07 11:56 | 52.02405 | 14.27847 | 25049 ft | 426 kts | 201° |
| 2026-05-07 11:56 | 51.99724 | 14.25786 | 25439 ft | 427 kts | 208° |
| 2026-05-07 11:57 | 51.97088 | 14.23533 | 25814 ft | 429 kts | 207° |
| 2026-05-07 11:57 | 51.94441 | 14.21288 | 26181 ft | 431 kts | 207° |
| 2026-05-07 11:57 | 51.91779 | 14.19045 | 26536 ft | 432 kts | 207° |
| 2026-05-07 11:57 | 51.89092 | 14.16823 | 26879 ft | 434 kts | 206° |
| 2026-05-07 11:58 | 51.86346 | 14.14747 | 27219 ft | 436 kts | 204° |
| 2026-05-07 11:58 | 51.83558 | 14.12802 | 27563 ft | 437 kts | 202° |
| 2026-05-07 11:58 | 51.80737 | 14.10922 | 27896 ft | 439 kts | 202° |
| 2026-05-07 11:58 | 51.77911 | 14.09066 | 28003 ft | 438 kts | 202° |
| 2026-05-07 11:59 | 51.75094 | 14.07203 | 28012 ft | 437 kts | 202° |
| 2026-05-07 11:59 | 51.69419 | 14.03720 | 28004 ft | 436 kts | 199° |
| 2026-05-07 12:00 | 51.63656 | 14.00621 | 28006 ft | 437 kts | 198° |
| 2026-05-07 12:00 | 51.57883 | 13.97560 | 27999 ft | 436 kts | 199° |
| 2026-05-07 12:01 | 51.52132 | 13.94417 | 27998 ft | 436 kts | 199° |
| 2026-05-07 12:01 | 51.49260 | 13.92831 | 27999 ft | 436 kts | 199° |
| 2026-05-07 12:01 | 51.46432 | 13.91269 | 27992 ft | 436 kts | 199° |
| 2026-05-07 12:01 | 51.43564 | 13.89692 | 27987 ft | 436 kts | 199° |
| 2026-05-07 12:02 | 51.40698 | 13.88121 | 27984 ft | 436 kts | 199° |
| 2026-05-07 12:02 | 51.37828 | 13.86549 | 27985 ft | 435 kts | 199° |
| 2026-05-07 12:02 | 51.34964 | 13.84985 | 27978 ft | 435 kts | 199° |
| 2026-05-07 12:02 | 51.32101 | 13.83421 | 27976 ft | 435 kts | 199° |
| 2026-05-07 12:03 | 51.29231 | 13.81858 | 27975 ft | 435 kts | 199° |
| 2026-05-07 12:03 | 51.26366 | 13.80303 | 27968 ft | 435 kts | 199° |
| 2026-05-07 12:03 | 51.23500 | 13.78746 | 27969 ft | 435 kts | 199° |
| 2026-05-07 12:03 | 51.21608 | 13.77717 | 27974 ft | 435 kts | 199° |
| 2026-05-07 12:04 | 51.18742 | 13.76158 | 27965 ft | 435 kts | 199° |
| 2026-05-07 12:04 | 51.15878 | 13.74604 | 27968 ft | 434 kts | 199° |
| 2026-05-07 12:04 | 51.12079 | 13.72548 | 27965 ft | 434 kts | 199° |
| 2026-05-07 12:04 | 51.10149 | 13.71506 | 27964 ft | 434 kts | 199° |
| 2026-05-07 12:05 | 51.07286 | 13.69963 | 27966 ft | 434 kts | 199° |
| 2026-05-07 12:05 | 51.04460 | 13.68443 | 27969 ft | 434 kts | 199° |
| 2026-05-07 12:05 | 51.01563 | 13.66887 | 27966 ft | 434 kts | 199° |
| 2026-05-07 12:05 | 50.98703 | 13.65353 | 27972 ft | 434 kts | 199° |
| 2026-05-07 12:06 | 50.95882 | 13.63840 | 27977 ft | 433 kts | 199° |
| 2026-05-07 12:06 | 50.93029 | 13.62311 | 27965 ft | 433 kts | 199° |
| 2026-05-07 12:06 | 50.90169 | 13.60778 | 27964 ft | 433 kts | 199° |
| 2026-05-07 12:06 | 50.87311 | 13.59247 | 27967 ft | 433 kts | 199° |
| 2026-05-07 12:07 | 50.84445 | 13.57719 | 27965 ft | 433 kts | 198° |
| 2026-05-07 12:07 | 50.81587 | 13.56202 | 27961 ft | 433 kts | 198° |
| 2026-05-07 12:07 | 50.78726 | 13.54683 | 27954 ft | 433 kts | 198° |
| 2026-05-07 12:07 | 50.75863 | 13.53162 | 27949 ft | 433 kts | 199° |
| 2026-05-07 12:08 | 50.73041 | 13.51661 | 27941 ft | 433 kts | 198° |
| 2026-05-07 12:08 | 50.70183 | 13.50143 | 27945 ft | 433 kts | 199° |
| 2026-05-07 12:08 | 50.67323 | 13.48626 | 27941 ft | 433 kts | 198° |
| 2026-05-07 12:08 | 50.64467 | 13.47114 | 27941 ft | 433 kts | 198° |
| 2026-05-07 12:09 | 50.61605 | 13.45604 | 27939 ft | 434 kts | 198° |
| 2026-05-07 12:09 | 50.58743 | 13.44099 | 27941 ft | 434 kts | 198° |
| 2026-05-07 12:09 | 50.55877 | 13.42596 | 27934 ft | 434 kts | 198° |
| 2026-05-07 12:09 | 50.53013 | 13.41095 | 27936 ft | 434 kts | 198° |
| 2026-05-07 12:10 | 50.50148 | 13.39593 | 27936 ft | 434 kts | 198° |
| 2026-05-07 12:10 | 50.47279 | 13.38088 | 27932 ft | 434 kts | 198° |
| 2026-05-07 12:10 | 50.44417 | 13.36585 | 27930 ft | 434 kts | 198° |
| 2026-05-07 12:10 | 50.41548 | 13.35079 | 27929 ft | 435 kts | 198° |
| 2026-05-07 12:11 | 50.38680 | 13.33574 | 27936 ft | 435 kts | 198° |
| 2026-05-07 12:11 | 50.35809 | 13.32069 | 27942 ft | 435 kts | 198° |
| 2026-05-07 12:11 | 50.32946 | 13.30571 | 27945 ft | 435 kts | 198° |
| 2026-05-07 12:11 | 50.30072 | 13.29074 | 27943 ft | 435 kts | 198° |
| 2026-05-07 12:12 | 50.27199 | 13.27582 | 27944 ft | 435 kts | 198° |
| 2026-05-07 12:12 | 50.24328 | 13.26093 | 27948 ft | 435 kts | 198° |
| 2026-05-07 12:12 | 50.21456 | 13.24603 | 27948 ft | 435 kts | 198° |
| 2026-05-07 12:12 | 50.18586 | 13.23114 | 27950 ft | 435 kts | 198° |
| 2026-05-07 12:13 | 50.15713 | 13.21625 | 27952 ft | 435 kts | 198° |
| 2026-05-07 12:13 | 50.12872 | 13.20156 | 27950 ft | 435 kts | 198° |
| 2026-05-07 12:13 | 50.09995 | 13.18672 | 27950 ft | 435 kts | 198° |
| 2026-05-07 12:13 | 50.07122 | 13.17192 | 27952 ft | 435 kts | 198° |
| 2026-05-07 12:14 | 50.04249 | 13.15712 | 27951 ft | 435 kts | 198° |
| 2026-05-07 12:14 | 50.01377 | 13.14240 | 27951 ft | 435 kts | 198° |
| 2026-05-07 12:14 | 49.98506 | 13.12770 | 27948 ft | 435 kts | 198° |
| 2026-05-07 12:14 | 49.95631 | 13.11296 | 27949 ft | 435 kts | 198° |
| 2026-05-07 12:15 | 49.92758 | 13.09824 | 27949 ft | 435 kts | 198° |
| 2026-05-07 12:15 | 49.89883 | 13.08355 | 27950 ft | 435 kts | 198° |
| 2026-05-07 12:15 | 49.87007 | 13.06889 | 27953 ft | 435 kts | 198° |
| 2026-05-07 12:15 | 49.84133 | 13.05424 | 27955 ft | 435 kts | 199° |
| 2026-05-07 12:16 | 49.81257 | 13.03958 | 27956 ft | 435 kts | 199° |
| 2026-05-07 12:16 | 49.78382 | 13.02494 | 27958 ft | 435 kts | 199° |
| 2026-05-07 12:16 | 49.75509 | 13.01030 | 27959 ft | 435 kts | 199° |
| 2026-05-07 12:16 | 49.72631 | 12.99567 | 27962 ft | 435 kts | 199° |
| 2026-05-07 12:17 | 49.69753 | 12.98109 | 27957 ft | 435 kts | 199° |
| 2026-05-07 12:17 | 49.66915 | 12.96672 | 27959 ft | 435 kts | 199° |
| 2026-05-07 12:17 | 49.64038 | 12.95216 | 27958 ft | 435 kts | 199° |
| 2026-05-07 12:17 | 49.61157 | 12.93760 | 27962 ft | 435 kts | 199° |
| 2026-05-07 12:18 | 49.58238 | 12.92528 | 27964 ft | 436 kts | 189° |
| 2026-05-07 12:18 | 49.55194 | 12.92435 | 27966 ft | 440 kts | 174° |
| 2026-05-07 12:18 | 49.52226 | 12.93623 | 27964 ft | 444 kts | 162° |
| 2026-05-07 12:18 | 49.49337 | 12.95306 | 27964 ft | 444 kts | 161° |
| 2026-05-07 12:19 | 49.46446 | 12.96999 | 27959 ft | 444 kts | 164° |
| 2026-05-07 12:19 | 49.43444 | 12.97857 | 27962 ft | 438 kts | 181° |
| 2026-05-07 12:19 | 49.40434 | 12.97414 | 27967 ft | 434 kts | 193° |
| 2026-05-07 12:19 | 49.37531 | 12.96160 | 27969 ft | 433 kts | 201° |
| 2026-05-07 12:20 | 49.34764 | 12.94359 | 27972 ft | 432 kts | 206° |
| 2026-05-07 12:20 | 49.32045 | 12.92408 | 27974 ft | 432 kts | 206° |
| 2026-05-07 12:20 | 49.29314 | 12.90476 | 27978 ft | 432 kts | 206° |
| 2026-05-07 12:20 | 49.26586 | 12.88543 | 27976 ft | 432 kts | 206° |
| 2026-05-07 12:21 | 49.23858 | 12.86594 | 27982 ft | 433 kts | 206° |
| 2026-05-07 12:21 | 49.21168 | 12.84658 | 27943 ft | 432 kts | 207° |
| 2026-05-07 12:21 | 49.18420 | 12.82668 | 26816 ft | 434 kts | 207° |
| 2026-05-07 12:21 | 49.15639 | 12.80645 | 25045 ft | 451 kts | 207° |
| 2026-05-07 12:22 | 49.12783 | 12.78567 | 23836 ft | 456 kts | 208° |
| 2026-05-07 12:22 | 49.09929 | 12.76499 | 22718 ft | 450 kts | 207° |
| 2026-05-07 12:22 | 49.07176 | 12.74512 | 21865 ft | 438 kts | 207° |